KHYA/HYA METAR and TAF weather

Enter ICAO airport designator
Station Type Date Time Source
KHYA METAR 2020/03/29 14:15 UTC NOAA

KHYA 291415Z 12011G20KT 2SM -RA BR OVC009 07/04 A3014 RMK AO2 RAB14 P0000 T00670044


Station Type Date Time Source
KHYA Decoded METAR 2020/03/29 14:15 UTC NOAA

HYANNIS BARNSTABLE BOARDMN, MA, United States (KHYA) 41-40N 070-16W 22M
Mar 29, 2020 - 10:15 AM EDT / 2020.03.29 1415 UTC
Wind: from the ESE (120 degrees) at 13 MPH (11 KT) gusting to 23 MPH (20 KT):0
Visibility: 2 mile(s):0
Sky conditions: overcast
Weather: light rain; mist
Precipitation last hour: A trace
Temperature: 44.1 F (6.7 C)
Dew Point: 39.9 F (4.4 C)
Relative Humidity: 85%
Pressure (altimeter): 30.14 in. Hg (1020 hPa)
ob: KHYA 291415Z 12011G20KT 2SM -RA BR OVC009 07/04 A3014 RMK AO2 RAB14 P0000 T00670044
cycle: 14

Station Type Date Time Source
KHYA TAF 2020/03/29 14:21 UTC NOAA

TAF
AMD KHYA 291421Z 2914/3012 12014G26KT 4SM -SHRA BR OVC009
FM300000 09012G21KT 1 1/2SM -SHRA BR OVC003
FM300700 04009KT 1 1/2SM BR OVC003

Example: see airport list